Time;durP1;ratioP1;P1;durP2;ratioP2;P2;SDS_P1;SDS_P2;PMS_P1;PMS_P2;Temp;Humidity;BMP_temperature;BMP_pressure;BME280_temperature;BME280_humidity;BME280_pressure;Samples;Min_cycle;Max_cycle;Signal;HPM_P1;HPM_P2
2023/12/20 00:33:14;;;;;;;;;;;;;;;13.73;57.73;100398.92;106239;1255;71135;-84
2023/12/20 00:35:54;;;;;;;;;;;;;;;13.82;57.33;100399.70;106319;1257;61341;-85
2023/12/20 00:38:33;;;;;;;;;;;;;;;13.79;56.96;100397.92;106267;1257;61077;-84
2023/12/20 00:41:13;;;;;;;;;;;;;;;13.33;58.47;100396.89;106261;1257;72445;-84
2023/12/20 00:43:47;;;;;;;;;;;;;;;13.08;59.72;100389.86;106282;1255;67271;-84
2023/12/20 00:46:26;;;;;;;;;;;;;;;13.15;59.74;100381.41;106404;1254;73077;-84
2023/12/20 00:49:06;;;;;;;;;;;;;;;13.31;58.96;100375.67;106311;1257;59558;-84
2023/12/20 00:51:46;;;;;;;;;;;;;;;13.35;58.65;100374.27;106293;1254;61304;-84
2023/12/20 00:54:26;;;;;;;;;;;;;;;13.39;58.38;100372.82;106296;1253;73408;-85
2023/12/20 00:57:06;;;;;;;;;;;;;;;13.38;58.22;100366.73;106403;1254;68393;-86
2023/12/20 00:59:45;;;;;;;;;;;;;;;13.33;58.26;100355.96;106235;1254;72599;-86
2023/12/20 01:02:25;;;;;;;;;;;;;;;13.39;57.90;100350.10;106337;1254;61372;-86
2023/12/20 01:05:05;;;;;;;;;;;;;;;13.40;57.67;100340.59;106263;1257;61243;-84
2023/12/20 01:07:44;;;;;;;;;;;;;;;13.32;57.75;100334.55;106350;1258;74784;-84
2023/12/20 01:10:28;;;;;;;;;;;;;;;13.48;57.29;100328.25;106374;1257;68389;-86
2023/12/20 01:13:08;;;;;;;;;;;;;;;13.48;57.03;100323.69;106242;1255;72694;-84
2023/12/20 01:15:48;;;;;;;;;;;;;;;13.64;56.30;100318.59;106272;1254;61910;-86
2023/12/20 01:18:28;;;;;;;;;;;;;;;13.68;55.84;100322.02;106355;1259;61946;-84
2023/12/20 01:21:08;;;;;;;;;;;;;;;13.84;55.28;100314.80;106365;1253;73449;-86
2023/12/20 01:23:48;;;;;;;;;;;;;;;13.93;54.29;100310.38;106300;1258;67445;-86
2023/12/20 01:26:27;;;;;;;;;;;;;;;13.86;54.35;100312.16;106303;1257;72694;-84
2023/12/20 01:29:07;;;;;;;;;;;;;;;13.54;54.76;100312.50;106358;1255;61125;-86
2023/12/20 01:31:47;;;;;;;;;;;;;;;13.34;55.10;100309.46;106404;1254;61301;-86
2023/12/20 01:34:26;;;;;;;;;;;;;;;13.17;55.34;100301.38;106294;1255;74705;-84
2023/12/20 01:37:06;;;;;;;;;;;;;;;13.24;55.22;100300.16;106284;1254;68440;-84
2023/12/20 01:39:46;;;;;;;;;;;;;;;13.10;55.25;100296.77;106348;1254;73006;-84
2023/12/20 01:42:20;;;;;;;;;;;;;;;13.06;55.35;100292.94;106337;1254;61304;-86
2023/12/20 01:44:59;;;;;;;;;;;;;;;13.08;55.06;100285.39;106376;1253;61193;-84
2023/12/20 01:47:39;;;;;;;;;;;;;;;13.00;55.01;100283.00;106431;1254;74586;-84
2023/12/20 01:50:19;;;;;;;;;;;;;;;12.95;55.14;100279.84;106364;1257;68215;-84
2023/12/20 01:52:58;;;;;;;;;;;;;;;13.13;54.45;100273.61;106322;1254;72661;-86
2023/12/20 01:55:39;;;;;;;;;;;;;;;13.09;54.33;100271.55;106279;1254;61202;-84
2023/12/20 01:58:12;;;;;;;;;;;;;;;12.92;54.72;100263.27;106506;1258;61313;-84
2023/12/20 02:00:46;;;;;;;;;;;;;;;12.97;54.66;100256.50;106379;1255;73448;-84
2023/12/20 02:03:20;;;;;;;;;;;;;;;12.95;54.74;100255.05;106268;1254;67404;-86
2023/12/20 02:05:54;;;;;;;;;;;;;;;12.95;54.74;100245.79;106266;1257;71481;-85
2023/12/20 02:08:28;;;;;;;;;;;;;;;13.06;54.30;100247.24;106352;1254;61214;-85
2023/12/20 02:11:01;;;;;;;;;;;;;;;13.10;54.15;100243.63;106300;1254;61437;-85
2023/12/20 02:13:35;;;;;;;;;;;;;;;13.09;53.99;100240.60;106175;1259;73426;-84
2023/12/20 02:16:09;;;;;;;;;;;;;;;12.90;54.29;100241.48;106173;1254;68373;-84
2023/12/20 02:18:43;;;;;;;;;;;;;;;12.76;54.53;100239.18;106499;1260;73029;-84
2023/12/20 02:21:17;;;;;;;;;;;;;;;12.61;55.02;100238.55;106186;1257;61236;-84
2023/12/20 02:23:51;;;;;;;;;;;;;;;12.47;55.38;100230.48;106192;1255;61335;-83
2023/12/20 02:26:24;;;;;;;;;;;;;;;12.42;55.78;100240.69;106234;1254;74718;-86
2023/12/20 02:28:58;;;;;;;;;;;;;;;12.39;55.69;100238.02;106304;1259;68454;-85
2023/12/20 02:31:32;;;;;;;;;;;;;;;12.33;56.11;100231.69;106957;1258;72649;-86
2023/12/20 02:34:06;;;;;;;;;;;;;;;12.24;56.39;100229.95;106342;1254;61223;-85
2023/12/20 02:36:40;;;;;;;;;;;;;;;12.41;55.95;100231.23;106194;1254;61107;-84
2023/12/20 02:39:13;;;;;;;;;;;;;;;12.28;56.20;100235.25;106208;1258;75082;-84
2023/12/20 02:41:47;;;;;;;;;;;;;;;12.11;56.91;100236.37;106397;1254;67082;-84
2023/12/20 02:44:21;;;;;;;;;;;;;;;12.07;57.05;100224.10;106200;1257;72742;-85
2023/12/20 02:46:54;;;;;;;;;;;;;;;12.04;57.14;100220.68;106236;1257;61338;-84
2023/12/20 02:49:28;;;;;;;;;;;;;;;12.07;57.12;100219.71;106392;1256;61871;-84
2023/12/20 02:52:02;;;;;;;;;;;;;;;12.24;56.64;100219.09;106325;1253;73483;-85
2023/12/20 02:54:35;;;;;;;;;;;;;;;12.28;56.43;100218.53;106389;1254;67274;-84
2023/12/20 02:57:09;;;;;;;;;;;;;;;12.17;56.77;100213.98;106237;1254;72659;-84
2023/12/20 02:59:43;;;;;;;;;;;;;;;12.19;56.70;100214.63;106207;1254;61747;-85
2023/12/20 03:02:17;;;;;;;;;;;;;;;12.32;56.21;100215.91;106221;1254;61171;-86
2023/12/20 03:04:44;;;;;;;;;;;;;;;12.36;56.10;100227.37;106402;1257;74626;-84
2023/12/20 03:07:18;;;;;;;;;;;;;;;12.36;55.97;100224.73;106411;1253;68560;-84
2023/12/20 03:09:52;;;;;;;;;;;;;;;12.24;56.21;100228.73;106272;1253;72803;-86
2023/12/20 03:12:45;;;;;;;;;;;;;;;12.26;56.15;100224.92;106287;1254;61199;-83
2023/12/20 03:15:13;;;;;;;;;;;;;;;12.21;56.11;100220.73;106359;1254;61258;-85
2023/12/20 03:17:47;;;;;;;;;;;;;;;12.18;56.39;100227.84;106338;1258;74595;-84
2023/12/20 03:20:21;;;;;;;;;;;;;;;12.25;56.11;100231.73;106337;1253;68882;-85
2023/12/20 03:22:48;;;;;;;;;;;;;;;12.44;55.64;100223.17;106356;1258;72700;-86
2023/12/20 03:25:19;;;;;;;;;;;;;;;12.38;55.56;100215.27;106289;1254;61279;-86
2023/12/20 03:27:53;;;;;;;;;;;;;;;12.41;55.50;100211.77;106365;1255;61354;-84
2023/12/20 03:30:26;;;;;;;;;;;;;;;12.54;55.09;100204.84;106422;1256;74568;-86
2023/12/20 03:32:54;;;;;;;;;;;;;;;12.54;54.90;100199.36;106270;1254;68524;-84
2023/12/20 03:35:28;;;;;;;;;;;;;;;12.39;55.35;100202.22;106083;1254;71775;-85
2023/12/20 03:38:02;;;;;;;;;;;;;;;12.22;55.92;100208.39;106474;1253;62367;-84
2023/12/20 03:40:35;;;;;;;;;;;;;;;12.16;56.31;100205.42;106256;1253;61140;-85
2023/12/20 03:43:03;;;;;;;;;;;;;;;12.25;56.22;100207.90;106214;1254;74608;-84
2023/12/20 03:45:37;;;;;;;;;;;;;;;12.08;56.44;100201.02;106349;1257;67165;-86
2023/12/20 03:48:11;;;;;;;;;;;;;;;11.98;57.00;100202.65;106515;1253;72471;-85
2023/12/20 03:50:44;;;;;;;;;;;;;;;12.00;57.11;100204.27;106326;1258;61272;-84
2023/12/20 03:53:12;;;;;;;;;;;;;;;11.88;57.48;100212.29;106365;1253;61260;-84
2023/12/20 03:55:46;;;;;;;;;;;;;;;11.89;57.31;100221.75;106096;1257;74676;-84
2023/12/20 03:58:19;;;;;;;;;;;;;;;11.78;57.75;100224.76;106294;1253;68429;-85
2023/12/20 04:00:47;;;;;;;;;;;;;;;11.91;57.49;100227.70;106325;1253;72220;-86
2023/12/20 04:03:20;;;;;;;;;;;;;;;11.97;57.15;100227.63;106366;1253;61340;-86
2023/12/20 04:05:54;;;;;;;;;;;;;;;11.97;57.02;100226.48;106336;1253;61279;-85
2023/12/20 04:08:28;;;;;;;;;;;;;;;12.04;56.79;100226.05;106229;1259;74671;-85
2023/12/20 04:10:55;;;;;;;;;;;;;;;12.10;56.49;100226.41;106424;1258;68544;-86
2023/12/20 04:13:29;;;;;;;;;;;;;;;11.94;56.91;100225.97;106297;1257;71878;-85
2023/12/20 04:16:03;;;;;;;;;;;;;;;11.86;57.49;100228.08;106241;1257;61327;-86
2023/12/20 04:18:38;;;;;;;;;;;;;;;11.98;57.27;100227.84;106335;1254;61293;-86
2023/12/20 04:21:06;;;;;;;;;;;;;;;11.95;57.29;100226.98;106240;1253;74684;-84
2023/12/20 04:23:40;;;;;;;;;;;;;;;11.86;57.85;100225.07;106235;1253;67089;-85
2023/12/20 04:26:14;;;;;;;;;;;;;;;12.09;57.03;100222.14;106326;1254;71433;-86
2023/12/20 04:28:47;;;;;;;;;;;;;;;12.21;56.38;100218.33;106405;1253;61276;-85
2023/12/20 04:31:15;;;;;;;;;;;;;;;12.28;56.02;100217.45;106511;1256;61218;-84
2023/12/20 12:33:40;;;;;;;;;;;;;;;16.49;43.55;99987.08;106562;1259;61238;-85
2023/12/20 12:36:21;;;;;;;;;;;;;;;16.38;43.60;99984.11;106869;1253;74633;-85
2023/12/20 12:39:03;;;;;;;;;;;;;;;16.05;44.32;99983.64;106574;1253;69683;-85
2023/12/20 12:41:43;;;;;;;;;;;;;;;16.22;44.07;99975.02;106401;1257;71486;-85
2023/12/20 12:44:24;;;;;;;;;;;;;;;16.60;43.30;99974.00;106502;1258;61487;-85
2023/12/20 12:47:05;;;;;;;;;;;;;;;16.56;43.31;99974.08;106229;1253;61239;-85
2023/12/20 12:49:46;;;;;;;;;;;;;;;16.53;43.30;99971.82;106457;1253;76856;-84
2023/12/20 12:52:26;;;;;;;;;;;;;;;16.21;43.83;99968.58;106329;1255;68753;-84
2023/12/20 12:55:06;;;;;;;;;;;;;;;16.20;43.96;99965.67;106586;1253;73970;-84
2023/12/20 12:57:46;;;;;;;;;;;;;;;16.28;43.84;99958.64;106714;1253;61242;-84
2023/12/20 13:00:26;;;;;;;;;;;;;;;16.19;44.02;99958.08;106236;1253;61158;-84
2023/12/20 13:03:06;;;;;;;;;;;;;;;16.08;44.52;99958.41;106345;1255;74656;-83
2023/12/20 13:05:47;;;;;;;;;;;;;;;16.08;44.62;99960.53;106399;1254;70835;-83
2023/12/20 13:08:27;;;;;;;;;;;;;;;16.15;44.62;99959.56;106217;1259;73770;-83
2023/12/20 13:11:07;;;;;;;;;;;;;;;15.99;44.91;99953.64;106252;1253;61335;-83
2023/12/20 13:13:47;;;;;;;;;;;;;;;15.80;45.25;99954.76;106256;1253;62106;-83
2023/12/20 13:16:26;;;;;;;;;;;;;;;16.00;44.96;99954.69;106277;1256;76990;-83
2023/12/20 13:19:06;;;;;;;;;;;;;;;16.60;43.90;99957.34;106202;1260;67796;-83
2023/12/20 13:21:46;;;;;;;;;;;;;;;16.28;44.32;99950.38;106245;1257;72469;-83
2023/12/20 13:24:15;;;;;;;;;;;;;;;16.05;44.81;99951.73;106325;1253;62719;-84
2023/12/20 13:26:50;;;;;;;;;;;;;;;15.81;45.35;99945.52;106282;1255;61297;-83
2023/12/20 13:29:27;;;;;;;;;;;;;;;15.62;45.89;99940.80;106337;1258;77011;-83
2023/12/20 13:31:54;;;;;;;;;;;;;;;15.50;46.24;99938.29;106085;1258;68256;-83
2023/12/20 13:34:30;;;;;;;;;;;;;;;15.44;46.49;99935.98;106139;1258;74906;-82
2023/12/20 13:37:04;;;;;;;;;;;;;;;15.49;46.41;99934.88;106334;1255;63092;-82
2023/12/20 13:39:38;;;;;;;;;;;;;;;15.45;46.77;99934.46;106481;1253;61411;-83
2023/12/20 13:42:06;;;;;;;;;;;;;;;15.33;47.18;99937.77;106104;1253;76948;-83
2023/12/20 13:44:39;;;;;;;;;;;;;;;15.20;47.48;99933.48;106264;1258;71064;-83
2023/12/20 13:47:13;;;;;;;;;;;;;;;15.05;48.00;99924.48;106211;1255;74178;-83
2023/12/20 13:49:47;;;;;;;;;;;;;;;15.00;48.08;99918.67;106544;1254;61350;-83
2023/12/20 13:52:21;;;;;;;;;;;;;;;14.96;48.42;99913.59;106240;1254;61135;-83
2023/12/20 13:54:49;;;;;;;;;;;;;;;14.91;48.55;99907.85;106532;1253;75755;-83
2023/12/20 13:57:23;;;;;;;;;;;;;;;15.03;48.50;99906.02;106705;1255;70859;-83
2023/12/20 14:00:16;;;;;;;;;;;;;;;15.06;48.37;99899.41;106244;1254;73993;-83
2023/12/20 14:02:50;;;;;;;;;;;;;;;14.78;48.98;99903.13;106263;1258;61246;-83
2023/12/20 14:05:24;;;;;;;;;;;;;;;14.67;49.61;99902.85;106181;1254;62220;-83
2023/12/20 14:08:01;;;;;;;;;;;;;;;14.48;50.21;99905.01;106180;1258;74679;-82
2023/12/20 14:10:36;;;;;;;;;;;;;;;14.54;50.34;99905.34;106389;1257;69762;-82
2023/12/20 14:13:09;;;;;;;;;;;;;;;14.66;50.29;99909.09;106294;1259;75708;-83
2023/12/20 14:15:43;;;;;;;;;;;;;;;14.38;51.08;99909.59;106216;1254;63201;-84
2023/12/20 14:18:18;;;;;;;;;;;;;;;14.46;51.44;99904.73;106292;1256;62112;-84
2023/12/20 14:20:52;;;;;;;;;;;;;;;14.48;51.59;99903.20;106417;1255;76873;-84
2023/12/20 14:23:26;;;;;;;;;;;;;;;14.29;52.45;99908.07;106264;1258;69849;-83
2023/12/20 14:26:00;;;;;;;;;;;;;;;14.10;53.51;99912.80;106268;1254;74778;-83
2023/12/20 14:28:34;;;;;;;;;;;;;;;14.07;54.11;99906.62;106276;1254;63666;-83
2023/12/20 14:31:10;;;;;;;;;;;;;;;14.12;54.27;99901.89;106183;1256;61682;-83
2023/12/20 14:33:43;;;;;;;;;;;;;;;14.05;54.98;99898.44;106414;1253;76933;-83
2023/12/20 14:36:17;;;;;;;;;;;;;;;14.04;55.22;99888.92;106267;1256;69953;-83
2023/12/20 14:38:51;;;;;;;;;;;;;;;14.00;55.59;99890.48;106102;1256;74745;-83
2023/12/20 14:41:25;;;;;;;;;;;;;;;14.13;55.73;99891.68;106273;1256;61529;-84
2023/12/20 14:44:00;;;;;;;;;;;;;;;14.34;55.18;99885.62;106202;1256;61891;-84
2023/12/20 14:46:34;;;;;;;;;;;;;;;14.42;55.17;99888.13;106281;1253;76810;-84
2023/12/20 14:49:08;;;;;;;;;;;;;;;14.30;55.54;99885.05;106210;1253;70711;-84
2023/12/20 14:51:47;;;;;;;;;;;;;;;14.48;55.19;99888.64;106583;1253;72761;-84
2023/12/20 14:54:21;;;;;;;;;;;;;;;14.57;54.98;99880.24;106635;1259;61227;-84
2023/12/20 14:56:55;;;;;;;;;;;;;;;14.66;54.89;99878.77;106355;1253;61189;-84
2023/12/20 14:59:37;;;;;;;;;;;;;;;14.50;55.42;99876.58;106386;1253;75540;-83
2023/12/20 15:02:11;;;;;;;;;;;;;;;14.29;56.47;99874.16;106181;1253;70541;-84
2023/12/20 15:04:38;;;;;;;;;;;;;;;14.35;56.49;99876.02;106195;1254;73584;-84
2023/12/20 15:07:12;;;;;;;;;;;;;;;14.39;56.62;99872.92;106054;1254;61179;-83
2023/12/20 15:09:47;;;;;;;;;;;;;;;14.46;56.64;99874.77;106138;1254;61324;-84
2023/12/20 15:12:15;;;;;;;;;;;;;;;14.52;56.83;99872.19;106207;1255;75955;-82
2023/12/20 15:14:46;;;;;;;;;;;;;;;14.66;56.24;99870.11;106210;1254;69878;-84
2023/12/20 15:17:20;;;;;;;;;;;;;;;14.73;56.11;99865.36;106181;1253;73738;-83
2023/12/20 15:19:54;;;;;;;;;;;;;;;14.80;55.81;99858.05;106201;1256;62401;-83
2023/12/20 15:22:22;;;;;;;;;;;;;;;14.82;55.64;99856.64;106231;1253;62011;-83
2023/12/20 15:24:56;;;;;;;;;;;;;;;14.83;55.56;99854.77;106366;1255;75480;-83
2023/12/20 15:27:29;;;;;;;;;;;;;;;14.76;55.75;99850.98;106253;1253;70551;-82
2023/12/20 15:30:04;;;;;;;;;;;;;;;14.80;55.64;99849.59;106225;1253;73649;-83
2023/12/20 15:32:32;;;;;;;;;;;;;;;14.71;55.94;99847.67;106063;1255;62180;-82
2023/12/20 15:35:06;;;;;;;;;;;;;;;14.83;55.50;99845.21;106139;1253;61409;-82
2023/12/20 15:37:41;;;;;;;;;;;;;;;14.72;55.70;99843.63;106239;1253;76589;-82
2023/12/20 15:40:14;;;;;;;;;;;;;;;14.51;56.46;99843.35;106321;1258;68641;-82
2023/12/20 15:42:42;;;;;;;;;;;;;;;14.50;56.65;99848.38;106252;1259;72714;-83
2023/12/20 15:45:16;;;;;;;;;;;;;;;14.53;56.61;99847.20;106247;1256;61199;-83
2023/12/20 15:47:50;;;;;;;;;;;;;;;14.66;56.19;99840.52;106281;1261;61224;-83
2023/12/20 15:50:18;;;;;;;;;;;;;;;14.75;55.81;99836.29;106280;1253;77920;-82
2023/12/20 15:52:49;;;;;;;;;;;;;;;14.71;55.91;99844.86;106371;1253;71084;-82
2023/12/20 15:55:22;;;;;;;;;;;;;;;14.61;56.37;99844.36;106554;1253;74838;-83
2023/12/20 15:57:56;;;;;;;;;;;;;;;14.57;56.56;99848.17;106617;1256;61321;-83
2023/12/20 16:00:24;;;;;;;;;;;;;;;14.38;57.13;99849.48;106315;1253;61856;-84
2023/12/20 16:02:58;;;;;;;;;;;;;;;14.31;57.69;99846.77;106190;1259;76223;-84
2023/12/20 16:05:32;;;;;;;;;;;;;;;14.19;58.17;99853.33;106527;1253;70580;-84
2023/12/20 16:08:06;;;;;;;;;;;;;;;14.03;59.15;99857.19;106220;1254;74944;-83
2023/12/20 16:10:41;;;;;;;;;;;;;;;13.97;59.82;99861.30;106256;1254;61165;-84
2023/12/20 16:13:15;;;;;;;;;;;;;;;13.91;60.43;99855.10;106220;1258;61370;-84
2023/12/20 16:15:49;;;;;;;;;;;;;;;14.00;60.21;99858.14;106348;1260;76545;-83
2023/12/20 16:18:23;;;;;;;;;;;;;;;13.89;60.91;99857.58;106259;1253;70027;-84
2023/12/20 16:20:57;;;;;;;;;;;;;;;13.69;62.01;99862.23;106183;1254;76029;-84
2023/12/20 16:23:31;;;;;;;;;;;;;;;13.56;62.94;99856.06;106234;1261;63178;-83
2023/12/20 16:26:04;;;;;;;;;;;;;;;13.59;63.20;99854.66;106303;1257;61136;-84
2023/12/20 16:28:38;;;;;;;;;;;;;;;13.30;64.95;99859.02;106304;1256;76931;-83
2023/12/20 16:31:12;;;;;;;;;;;;;;;13.25;65.58;99863.02;106129;1253;71456;-83
2023/12/20 16:33:46;;;;;;;;;;;;;;;13.30;65.61;99866.20;106435;1253;74947;-84
2023/12/20 16:36:20;;;;;;;;;;;;;;;13.29;65.62;99858.09;106372;1253;61223;-85
2023/12/20 16:38:54;;;;;;;;;;;;;;;13.34;65.62;99863.03;106217;1258;61230;-84
2023/12/20 16:41:28;;;;;;;;;;;;;;;13.54;64.64;99854.02;106219;1259;77371;-85
2023/12/20 16:44:02;;;;;;;;;;;;;;;13.76;63.04;99853.24;106176;1260;69670;-84
2023/12/20 16:46:36;;;;;;;;;;;;;;;13.74;62.70;99844.52;106207;1256;73457;-83
2023/12/20 16:49:09;;;;;;;;;;;;;;;13.82;62.17;99832.92;106215;1258;61299;-85
2023/12/20 16:51:44;;;;;;;;;;;;;;;13.67;62.74;99831.55;106253;1256;61223;-83
2023/12/20 16:54:17;;;;;;;;;;;;;;;13.61;63.02;99830.20;106990;1253;75859;-83
2023/12/20 16:56:52;;;;;;;;;;;;;;;13.47;63.44;99826.48;106555;1253;71093;-83
2023/12/20 16:59:26;;;;;;;;;;;;;;;13.50;63.25;99820.77;106336;1253;74011;-84
2023/12/20 17:02:03;;;;;;;;;;;;;;;13.51;63.10;99815.12;106312;1254;62257;-83
2023/12/20 17:04:37;;;;;;;;;;;;;;;13.38;64.09;99823.40;106448;1256;61218;-83
2023/12/20 17:07:11;;;;;;;;;;;;;;;13.38;64.47;99820.02;106281;1255;75532;-84
2023/12/20 17:09:46;;;;;;;;;;;;;;;13.35;65.16;99825.81;106290;1258;71049;-84
2023/12/20 17:12:20;;;;;;;;;;;;;;;13.28;65.84;99835.56;106446;1258;72944;-83
2023/12/20 17:14:54;;;;;;;;;;;;;;;12.98;67.94;99822.07;106285;1259;61430;-82
2023/12/20 17:17:27;;;;;;;;;;;;;;;12.89;68.87;99827.64;106194;1254;62128;-83
2023/12/20 17:20:02;;;;;;;;;;;;;;;12.91;68.84;99822.60;106440;1253;76934;-83
2023/12/20 17:22:36;;;;;;;;;;;;;;;12.79;69.31;99813.89;106292;1256;70542;-84
2023/12/20 17:25:11;;;;;;;;;;;;;;;12.78;69.91;99813.65;106413;1256;74985;-84
2023/12/20 17:27:45;;;;;;;;;;;;;;;12.83;70.07;99819.62;106334;1259;61260;-84
2023/12/20 17:30:19;;;;;;;;;;;;;;;12.69;70.69;99817.85;106273;1259;62159;-84
2023/12/20 17:32:53;;;;;;;;;;;;;;;12.67;71.22;99810.83;106384;1256;76991;-84
2023/12/20 17:35:27;;;;;;;;;;;;;;;12.67;71.61;99808.25;106256;1258;71147;-84
2023/12/20 17:38:01;;;;;;;;;;;;;;;12.74;71.86;99805.61;106246;1254;73522;-84
2023/12/20 17:40:39;;;;;;;;;;;;;;;12.89;71.12;99807.89;106303;1259;62372;-84
2023/12/20 17:43:13;;;;;;;;;;;;;;;13.00;70.41;99813.57;106338;1257;61416;-84
2023/12/20 17:45:47;;;;;;;;;;;;;;;12.99;70.52;99808.81;106150;1255;74672;-84
2023/12/20 17:48:21;;;;;;;;;;;;;;;12.99;70.72;99804.48;106199;1259;69691;-84
2023/12/20 17:50:55;;;;;;;;;;;;;;;13.05;70.66;99800.23;106260;1258;76324;-84
2023/12/20 17:53:28;;;;;;;;;;;;;;;13.04;70.67;99790.61;106437;1258;63131;-84
2023/12/20 17:56:02;;;;;;;;;;;;;;;13.11;70.15;99762.08;106655;1254;61844;-84
2023/12/20 17:58:36;;;;;;;;;;;;;;;13.19;69.36;99743.31;106468;1254;75879;-84
2023/12/20 18:01:10;;;;;;;;;;;;;;;13.26;69.13;99739.75;106311;1259;70613;-84
2023/12/20 18:03:44;;;;;;;;;;;;;;;13.18;69.96;99747.80;106459;1253;73025;-83
2023/12/20 18:06:18;;;;;;;;;;;;;;;13.15;70.61;99745.94;106271;1259;62998;-84
2023/12/20 18:08:53;;;;;;;;;;;;;;;13.12;70.38;99742.64;106453;1254;61427;-85
2023/12/20 18:11:27;;;;;;;;;;;;;;;13.11;70.83;99750.81;106642;1260;76718;-85
2023/12/20 18:14:01;;;;;;;;;;;;;;;13.02;71.64;99747.98;106341;1259;69761;-85
2023/12/20 18:16:35;;;;;;;;;;;;;;;12.97;72.17;99750.30;106320;1254;74177;-85
2023/12/20 18:19:11;;;;;;;;;;;;;;;13.14;71.37;99756.70;106320;1254;62550;-85
2023/12/20 18:21:45;;;;;;;;;;;;;;;13.17;71.04;99751.02;106397;1253;61931;-84
2023/12/20 18:24:19;;;;;;;;;;;;;;;12.95;72.58;99756.33;106439;1258;75548;-84
2023/12/20 18:26:53;;;;;;;;;;;;;;;12.91;72.97;99749.40;106124;1260;69800;-85
2023/12/20 18:29:26;;;;;;;;;;;;;;;12.98;73.16;99730.08;106321;1260;74741;-85
2023/12/20 18:32:00;;;;;;;;;;;;;;;12.82;74.43;99731.20;106117;1254;62101;-85
2023/12/20 18:34:35;;;;;;;;;;;;;;;12.79;75.71;99738.34;106352;1253;61891;-85
2023/12/20 18:37:10;;;;;;;;;;;;;;;12.66;77.59;99746.82;106268;1258;75775;-83
2023/12/20 18:39:46;;;;;;;;;;;;;;;12.82;77.70;99748.79;106222;1253;70662;-85
2023/12/20 18:42:20;;;;;;;;;;;;;;;12.88;78.59;99751.83;106351;1259;74525;-85
2023/12/20 18:44:55;;;;;;;;;;;;;;;12.95;79.75;99751.77;106278;1254;61334;-84
2023/12/20 18:47:30;;;;;;;;;;;;;;;13.02;80.90;99760.83;106394;1259;61320;-84
2023/12/20 18:50:07;;;;;;;;;;;;;;;13.10;81.91;99772.14;106263;1259;77172;-85
2023/12/20 18:52:41;;;;;;;;;;;;;;;13.59;79.97;99734.65;106465;1258;69304;-85
2023/12/20 18:55:15;;;;;;;;;;;;;;;13.92;76.84;99703.20;106851;1258;74107;-84
2023/12/20 18:57:49;;;;;;;;;;;;;;;14.12;75.13;99715.29;106531;1255;63000;-85
2023/12/20 19:00:23;;;;;;;;;;;;;;;14.22;74.14;99719.05;106659;1259;61617;-85
2023/12/20 19:02:57;;;;;;;;;;;;;;;14.22;74.37;99718.55;106834;1254;74795;-85
2023/12/20 19:05:31;;;;;;;;;;;;;;;14.13;75.79;99716.70;106761;1255;72405;-85
2023/12/20 19:08:05;;;;;;;;;;;;;;;14.08;76.66;99713.58;106484;1259;75556;-85
2023/12/20 19:10:39;;;;;;;;;;;;;;;14.24;75.16;99705.19;106722;1259;61350;-84
2023/12/20 19:13:12;;;;;;;;;;;;;;;14.25;74.32;99698.56;106492;1253;61193;-85
2023/12/20 19:15:46;;;;;;;;;;;;;;;14.15;75.14;99709.19;106457;1260;76544;-85
2023/12/20 19:18:23;;;;;;;;;;;;;;;14.05;76.09;99719.45;106707;1258;70006;-85
2023/12/20 19:20:57;;;;;;;;;;;;;;;14.01;76.27;99724.23;106197;1259;74979;-85
2023/12/20 19:23:31;;;;;;;;;;;;;;;14.01;76.26;99726.59;106423;1256;61145;-85
2023/12/20 19:26:05;;;;;;;;;;;;;;;13.90;76.93;99739.32;106383;1253;61112;-84
2023/12/20 19:28:39;;;;;;;;;;;;;;;13.94;76.97;99753.77;106550;1254;77287;-85
2023/12/20 19:31:15;;;;;;;;;;;;;;;14.09;75.49;99754.98;106473;1261;68789;-84
2023/12/20 19:33:52;;;;;;;;;;;;;;;13.98;75.75;99743.92;106387;1256;72925;-85
2023/12/20 19:36:26;;;;;;;;;;;;;;;14.14;74.80;99739.96;106522;1258;61250;-85
2023/12/20 19:39:00;;;;;;;;;;;;;;;14.35;72.74;99727.45;106318;1260;61886;-85
2023/12/20 19:41:34;;;;;;;;;;;;;;;14.33;71.32;99714.77;106295;1258;76734;-84
2023/12/20 19:44:08;;;;;;;;;;;;;;;14.11;71.91;99706.67;106523;1257;69790;-84
2023/12/20 19:46:42;;;;;;;;;;;;;;;13.93;72.46;99692.90;106428;1257;73781;-84
2023/12/20 19:49:17;;;;;;;;;;;;;;;13.77;72.75;99695.60;106811;1254;62705;-84
2023/12/20 19:51:51;;;;;;;;;;;;;;;13.69;72.92;99698.36;106358;1261;61308;-85
2023/12/20 19:54:27;;;;;;;;;;;;;;;13.66;73.25;99688.27;106441;1254;76960;-84
2023/12/20 19:57:01;;;;;;;;;;;;;;;13.73;72.71;99696.27;106668;1254;68798;-83
2023/12/20 19:59:35;;;;;;;;;;;;;;;13.75;72.69;99698.52;106511;1254;74847;-83
2023/12/20 20:02:08;;;;;;;;;;;;;;;13.87;72.18;99697.64;106405;1257;61696;-83
2023/12/20 20:04:42;;;;;;;;;;;;;;;14.06;70.20;99698.27;106362;1252;62447;-84
2023/12/20 20:07:19;;;;;;;;;;;;;;;14.06;69.53;99692.73;106377;1259;76949;-83
2023/12/20 20:09:53;;;;;;;;;;;;;;;13.86;70.25;99680.50;106758;1255;68241;-83
2023/12/20 20:12:27;;;;;;;;;;;;;;;13.61;71.23;99684.52;106466;1255;75118;-83
2023/12/20 20:15:01;;;;;;;;;;;;;;;13.39;72.94;99705.75;106720;1255;62698;-84
2023/12/20 20:17:34;;;;;;;;;;;;;;;13.41;72.65;99690.48;106425;1255;61751;-83
2023/12/20 20:20:09;;;;;;;;;;;;;;;13.19;73.12;99687.13;106221;1257;289254;-84
2023/12/20 20:22:42;;;;;;;;;;;;;;;12.97;73.98;99704.01;106494;1258;71468;-84
2023/12/20 20:25:16;;;;;;;;;;;;;;;12.98;73.54;99702.56;106417;1254;73841;-85
2023/12/20 20:27:50;;;;;;;;;;;;;;;12.94;73.20;99686.15;106396;1254;63912;-84
2023/12/20 20:30:24;;;;;;;;;;;;;;;13.07;71.76;99675.39;106346;1259;61343;-84
